Главная страница
METAR-TAF:

METAR-TAF

Аэропорты :

Джидда, Саудовская Аравия

Король Абдул-Азиз

широта: 21-42N, долгота: 039-11E, высота над уровнем моря: 15 м

Текущие метеонаблюдения

Эта сводка был подготовлена 25 минут назад, в 12:00 UTC
Ветер 13 Узел от западный-юго-западный
Температура 28°C
Влажность 55%
Давление 1010 hPa
Видимость: 8000 м
небольшая облачность на высоте 4000 фута

METAR: OEJN 221200Z 24013KT 8000 FEW040 28/18 Q1010 NOSIG

Время: 15:25 (12:25 UTC)

Прогноз

Эта сводка был подготовлена 1 час и 25 минут назад, в 11:00 UTC
Прогноз действительный с 22-го 12 UTC до 23-го 18 UTC
Ветер 15 Узел от западный-юго-западный
Видимость: 7000 м
Отдельные облака на высоте 3000 фута
изменения
С 22-го 18 UTC до 22-го 20 UTC
Ветер 6 Узел от северо-северо-восточный
временами
С 23-го 00 UTC до 23-го 06 UTC
Видимость: 4000 м
дымка

TAF: OEJN 221100Z 2212/2318 25015KT 7000 SCT030 BECMG 2218/2220 03006KT TEMPO 2300/2306 4000 BR

Метеонаблюдения и прогнозы для более 4000 аэропортов (сводки METAR и TAF).

Имеющиеся станции представлены на карте желтыми и красными точками.

Чтобы увидеть название станции, наведите на нее мышь.

Затем щелкните, чтобы увидеть метеонаблюдения и метеопрогнозы.

Управление картой: чтобы увеличить масштаб, щелкните зеленые кнопки с черным крестиком; чтобы уменьшить масштаб, щелкните зеленую кнопку с тире; для просмотра соседних карт щелкайте зеленые стрелки.


METAR-TAF: